Archival Weather

Fukuoka

Fukuoka, Japan (RJFF)

Report from: Tuesday, August 16, 2022 3:40 PM JST
Current time: Sunday, November 27, 2022 5:27 PM JST

Current weather
Weather history
Weather forecast

Present weatherHeavy thunderstorm with rain
Temperature27.0°C (80.6°F)
Heat index30.6°C (87.0°F)
Dew point25.0°C (77.0°F)
Winds 8 kts (4.1 m/s, 9.2 mph) South (180°)
Visibility6.2 mi. (10 km)
Clouds Few clouds 500 ft. (152 m)
Few clouds with cumulonimbus 2,500 ft. (762 m)
Scattered clouds 3,500 ft. (1,067 m)
Ceiling: Broken clouds 4,500 ft. (1,372 m)
Altimeter29.74 in.Hg (1007 mB)
Precip. events C 3:02 PM
Relative humidity89 %
Density altitude2,017 ft. (615 m)
Remarks Special weather observation
Thunderstorm southwest west moving northeast
Flight conditions Visual Meteorological Conditions
Raw dataSPJP31 KWBC 160658 SPECI RJFF 160640Z 18008KT 9999 +TSRA FEW005 FEW025CB SCT035 BKN045 27/25 Q1007 RMK 1ST005 2CB025 3CU035 5CU045 A2974 FBL TS 15KM SW-W MOV NE
An error has occurred. This application may no longer respond until reloaded. Reload 🗙